createdAt,value
2023-02-22T00:00:54.570Z,7.36
2023-02-22T00:03:25.369Z,7.33
2023-02-22T00:05:55.088Z,7.28
2023-02-22T00:08:24.877Z,7.22
2023-02-22T00:11:10.731Z,7.23
2023-02-22T00:13:38.704Z,7.30
2023-02-22T00:16:06.566Z,7.40
2023-02-22T00:18:33.657Z,7.38
2023-02-22T00:21:01.572Z,7.24
2023-02-22T00:23:30.579Z,7.22
2023-02-22T00:25:58.892Z,7.58
2023-02-22T00:28:54.164Z,7.49
2023-02-22T00:31:22.161Z,7.45
2023-02-22T00:33:49.169Z,7.51
2023-02-22T00:36:16.056Z,7.37
2023-02-22T00:38:46.230Z,7.35
2023-02-22T00:41:13.294Z,7.35
2023-02-22T00:43:41.042Z,7.33
2023-02-22T00:46:07.929Z,7.32
2023-02-22T00:48:34.890Z,7.00
2023-02-22T00:51:01.885Z,7.11
2023-02-22T00:53:28.790Z,7.06
2023-02-22T00:55:55.843Z,6.97
2023-02-22T00:58:22.986Z,6.96
2023-02-22T01:00:50.467Z,7.03
2023-02-22T01:03:19.731Z,6.99
2023-02-22T01:05:47.926Z,6.94
2023-02-22T01:08:16.735Z,6.94
2023-02-22T01:10:45.191Z,6.90
2023-02-22T01:13:13.048Z,6.87
2023-02-22T01:15:43.242Z,6.92
2023-02-22T01:18:12.855Z,6.78
2023-02-22T01:20:39.937Z,6.84
2023-02-22T01:23:08.308Z,6.72
2023-02-22T01:25:36.231Z,6.67
2023-02-22T01:28:06.343Z,6.67
2023-02-22T01:30:35.568Z,6.62
2023-02-22T01:33:04.767Z,6.56
2023-02-22T01:35:35.314Z,6.47
2023-02-22T01:38:02.941Z,6.27
2023-02-22T01:40:35.880Z,6.54
2023-02-22T01:43:06.866Z,6.47
2023-02-22T01:45:33.586Z,6.44
2023-02-22T01:48:08.968Z,6.45
2023-02-22T01:50:55.946Z,6.46
2023-02-22T01:53:29.397Z,6.42
2023-02-22T01:55:57.841Z,6.54
2023-02-22T01:58:28.522Z,6.43
2023-02-22T02:03:40.659Z,6.18
2023-02-22T02:06:13.075Z,6.33
2023-02-22T02:08:59.870Z,6.05
2023-02-22T02:11:28.445Z,6.29
2023-02-22T02:13:57.201Z,6.23
2023-02-22T02:16:27.919Z,6.46
2023-02-22T02:18:55.453Z,6.51
2023-02-22T02:21:25.301Z,6.39
2023-02-22T02:24:24.732Z,6.30
2023-02-22T02:26:55.582Z,6.17
2023-02-22T02:29:44.029Z,6.23
2023-02-22T02:32:28.392Z,6.15
2023-02-22T02:35:18.754Z,6.09
2023-02-22T02:38:10.144Z,6.11
2023-02-22T02:40:50.115Z,6.06
2023-02-22T02:43:26.642Z,6.13
2023-02-22T02:46:15.720Z,5.94
2023-02-22T02:48:49.753Z,5.85
2023-02-22T02:51:18.490Z,5.78
2023-02-22T02:53:49.044Z,5.66
2023-02-22T02:56:15.994Z,5.55
2023-02-22T02:58:49.829Z,5.53
2023-02-22T03:01:26.165Z,5.53
2023-02-22T03:04:11.386Z,5.57
2023-02-22T03:06:46.974Z,5.44
2023-02-22T03:09:34.975Z,5.43
2023-02-22T03:12:27.874Z,5.40
2023-02-22T03:15:26.530Z,5.40
2023-02-22T03:18:23.136Z,5.46
2023-02-22T03:21:31.638Z,5.36
2023-02-22T03:24:10.240Z,5.24
2023-02-22T03:26:42.227Z,5.31
2023-02-22T03:29:11.949Z,5.34
2023-02-22T03:31:43.158Z,5.35
2023-02-22T03:34:21.998Z,5.33
2023-02-22T03:36:56.179Z,5.32
2023-02-22T03:39:31.182Z,5.33
2023-02-22T03:42:10.137Z,5.52
2023-02-22T03:44:40.672Z,5.59
2023-02-22T03:47:12.197Z,5.58
2023-02-22T03:49:52.603Z,5.63
2023-02-22T03:52:20.565Z,5.69
2023-02-22T03:54:48.031Z,5.73
2023-02-22T03:57:26.048Z,5.64
2023-02-22T03:59:53.614Z,5.47
2023-02-22T04:02:20.798Z,5.68
2023-02-22T04:04:48.570Z,5.60
2023-02-22T04:07:16.001Z,5.50
2023-02-22T04:09:44.108Z,5.42
2023-02-22T04:12:11.087Z,5.42
2023-02-22T04:14:37.933Z,5.30
2023-02-22T04:17:04.967Z,5.30
2023-02-22T04:19:31.945Z,5.23
2023-02-22T04:21:58.856Z,5.18
2023-02-22T04:24:25.740Z,5.23
2023-02-22T04:26:53.260Z,5.34
2023-02-22T04:29:20.238Z,5.53
2023-02-22T04:31:47.562Z,5.64
2023-02-22T04:34:14.603Z,5.72
2023-02-22T04:36:44.527Z,5.65
2023-02-22T04:39:11.918Z,5.63
2023-02-22T04:41:39.054Z,5.58
2023-02-22T04:44:06.023Z,5.65
2023-02-22T04:46:33.056Z,5.57
2023-02-22T04:49:00.088Z,5.35
2023-02-22T04:51:27.113Z,5.26
2023-02-22T04:53:54.098Z,5.28
2023-02-22T04:56:21.349Z,5.27
2023-02-22T04:58:48.467Z,5.39
2023-02-22T05:01:16.999Z,5.57
2023-02-22T05:03:44.518Z,5.60
2023-02-22T05:06:12.818Z,5.61
2023-02-22T05:08:39.725Z,5.62
2023-02-22T05:11:07.038Z,5.59
2023-02-22T05:13:36.397Z,5.67
2023-02-22T05:16:04.370Z,5.75
2023-02-22T05:18:31.313Z,5.76
2023-02-22T05:20:58.535Z,5.68
2023-02-22T05:23:25.363Z,5.71
2023-02-22T05:25:52.246Z,5.50
2023-02-22T05:28:19.311Z,5.55
2023-02-22T05:30:46.385Z,5.47
2023-02-22T05:33:13.706Z,5.37
2023-02-22T05:35:40.683Z,5.35
2023-02-22T05:38:26.190Z,5.37
2023-02-22T05:40:53.051Z,5.89
2023-02-22T05:43:19.968Z,6.43
2023-02-22T05:45:46.942Z,6.81
2023-02-22T05:48:13.920Z,7.09
2023-02-22T05:50:40.835Z,7.09
2023-02-22T05:53:07.838Z,6.67
2023-02-22T05:55:35.394Z,6.76
2023-02-22T05:58:04.870Z,6.92
2023-02-22T06:00:32.212Z,7.64
2023-02-22T06:03:02.024Z,8.64
2023-02-22T06:05:30.082Z,9.29
2023-02-22T06:07:59.168Z,9.86
2023-02-22T06:10:27.135Z,10.21
2023-02-22T06:12:55.290Z,10.10
2023-02-22T06:15:24.724Z,10.87
2023-02-22T06:17:52.106Z,10.94
2023-02-22T06:20:23.483Z,10.95
2023-02-22T06:22:52.490Z,10.99
2023-02-22T06:25:24.184Z,11.17
2023-02-22T06:27:51.563Z,12.05
2023-02-22T06:30:21.395Z,12.81
2023-02-22T06:32:48.392Z,12.49
2023-02-22T06:35:16.052Z,12.63
2023-02-22T06:37:44.635Z,13.01
2023-02-22T06:40:12.636Z,13.23
2023-02-22T06:42:42.098Z,13.93
2023-02-22T06:45:10.005Z,13.92
2023-02-22T06:47:42.653Z,13.83
2023-02-22T06:50:24.875Z,14.42
2023-02-22T06:52:52.497Z,14.92
2023-02-22T06:55:25.174Z,15.01
2023-02-22T06:58:10.817Z,15.18
2023-02-22T07:00:41.412Z,16.03
2023-02-22T07:03:08.408Z,16.20
2023-02-22T07:05:35.766Z,17.16
2023-02-22T07:08:08.125Z,16.34
2023-02-22T07:10:36.880Z,16.79
2023-02-22T07:13:05.133Z,16.89
2023-02-22T07:15:34.825Z,16.89
2023-02-22T07:18:02.266Z,17.50
2023-02-22T07:20:32.040Z,17.54
2023-02-22T07:22:59.359Z,17.56
2023-02-22T07:25:26.695Z,17.99
2023-02-22T07:27:54.843Z,18.20
2023-02-22T07:30:25.744Z,18.23
2023-02-22T07:32:55.199Z,18.12
2023-02-22T07:35:31.106Z,18.37
2023-02-22T07:37:59.360Z,18.21
2023-02-22T07:40:34.819Z,17.96
2023-02-22T07:43:26.446Z,17.61
2023-02-22T07:45:56.198Z,18.73
2023-02-22T07:48:26.903Z,18.26
2023-02-22T07:50:54.036Z,18.36
2023-02-22T07:53:24.100Z,18.65
2023-02-22T07:55:52.106Z,18.98
2023-02-22T07:58:24.947Z,18.71
2023-02-22T08:00:53.041Z,18.40
2023-02-22T08:03:23.506Z,18.58
2023-02-22T08:05:53.468Z,18.67
2023-02-22T08:08:20.540Z,18.95
2023-02-22T08:10:48.437Z,18.97
2023-02-22T08:13:16.651Z,19.63
2023-02-22T08:15:50.084Z,19.81
2023-02-22T08:18:19.417Z,19.94
2023-02-22T08:20:52.238Z,20.05
2023-02-22T08:23:20.620Z,20.09
2023-02-22T08:25:51.434Z,20.05
2023-02-22T08:28:22.733Z,20.23
2023-02-22T08:30:51.086Z,19.61
2023-02-22T08:33:20.142Z,20.12
2023-02-22T08:35:49.985Z,20.73
2023-02-22T08:38:23.312Z,20.70
2023-02-22T08:40:52.252Z,20.01
2023-02-22T08:43:20.910Z,20.36
2023-02-22T08:45:49.939Z,20.52
2023-02-22T08:48:17.801Z,20.69
2023-02-22T08:50:44.927Z,20.53
2023-02-22T08:53:13.841Z,20.62
2023-02-22T08:55:42.240Z,20.48
2023-02-22T08:58:10.071Z,20.84
2023-02-22T09:00:39.050Z,20.93
2023-02-22T09:03:09.291Z,20.94
2023-02-22T09:05:36.825Z,21.12
2023-02-22T09:08:04.301Z,21.07
2023-02-22T09:10:35.956Z,20.92
2023-02-22T09:13:04.220Z,20.80
2023-02-22T09:15:36.413Z,21.05
2023-02-22T09:18:04.512Z,20.38
2023-02-22T09:20:31.680Z,20.47
2023-02-22T09:22:59.965Z,20.57
2023-02-22T09:25:27.433Z,20.53
2023-02-22T09:27:55.739Z,20.55
2023-02-22T09:30:32.557Z,21.18
2023-02-22T09:33:10.626Z,20.99
2023-02-22T09:35:46.733Z,20.78
2023-02-22T09:38:16.456Z,21.04
2023-02-22T09:40:50.471Z,21.31
2023-02-22T09:43:35.962Z,20.99
2023-02-22T09:46:28.157Z,21.04
2023-02-22T09:49:02.152Z,21.56
2023-02-22T09:52:06.082Z,21.75
2023-02-22T09:54:52.009Z,21.64
2023-02-22T09:57:27.210Z,21.10
2023-02-22T10:00:13.270Z,21.48
2023-02-22T10:02:52.356Z,21.47
2023-02-22T10:05:31.674Z,21.62
2023-02-22T10:08:06.361Z,21.48
2023-02-22T10:10:39.429Z,21.68
2023-02-22T10:13:14.256Z,21.45
2023-02-22T10:16:05.637Z,21.43
2023-02-22T10:19:15.369Z,21.74
2023-02-22T10:21:49.060Z,21.44
2023-02-22T10:24:38.767Z,21.22
2023-02-22T10:27:15.387Z,21.50
2023-02-22T10:29:47.992Z,21.58
2023-02-22T10:32:29.877Z,21.65
2023-02-22T10:35:00.975Z,21.59
2023-02-22T10:37:34.406Z,21.96
2023-02-22T10:40:32.312Z,21.97
2023-02-22T10:43:03.276Z,22.02
2023-02-22T10:45:37.352Z,21.90
2023-02-22T10:48:12.330Z,21.68
2023-02-22T10:50:44.503Z,21.34
2023-02-22T10:53:16.828Z,21.28
2023-02-22T10:56:22.725Z,21.48
2023-02-22T10:58:57.749Z,20.99
2023-02-22T11:01:32.200Z,21.21
2023-02-22T11:04:05.644Z,21.29
2023-02-22T11:06:34.828Z,21.10
2023-02-22T11:09:22.731Z,21.25
2023-02-22T11:12:07.085Z,21.11
2023-02-22T11:14:35.079Z,20.97
2023-02-22T11:17:08.275Z,21.48
2023-02-22T11:19:38.561Z,21.42
2023-02-22T11:22:05.311Z,21.47
2023-02-22T11:24:47.445Z,21.04
2023-02-22T11:27:38.417Z,20.95
2023-02-22T11:30:35.192Z,20.89
2023-02-22T11:33:06.403Z,20.83
2023-02-22T11:35:51.009Z,20.91
2023-02-22T11:38:22.887Z,20.84
2023-02-22T11:41:18.982Z,20.96
2023-02-22T11:43:51.488Z,20.79
2023-02-22T11:46:29.438Z,20.93
2023-02-22T11:49:06.646Z,21.15
2023-02-22T11:52:03.516Z,20.65
2023-02-22T11:54:54.980Z,20.52
2023-02-22T11:57:46.857Z,19.88
2023-02-22T12:00:41.727Z,20.51
2023-02-22T12:03:33.010Z,20.39
2023-02-22T12:06:24.873Z,20.53
2023-02-22T12:09:03.816Z,20.45
2023-02-22T12:11:43.637Z,20.59
2023-02-22T12:14:53.699Z,20.63
2023-02-22T12:17:39.033Z,20.38
2023-02-22T12:20:23.226Z,20.26
2023-02-22T12:23:13.538Z,20.09
2023-02-22T12:25:54.824Z,20.27
2023-02-22T12:28:26.054Z,19.98
2023-02-22T12:31:05.236Z,20.00
2023-02-22T12:33:50.600Z,19.95
2023-02-22T12:36:23.070Z,20.12
2023-02-22T12:38:59.286Z,19.82
2023-02-22T12:41:34.534Z,19.63
2023-02-22T12:44:09.600Z,19.55
2023-02-22T12:46:48.102Z,19.63
2023-02-22T12:49:26.667Z,19.66
2023-02-22T12:52:24.905Z,19.57
2023-02-22T12:55:01.395Z,19.66
2023-02-22T12:57:44.633Z,19.41
2023-02-22T13:00:28.883Z,19.42
2023-02-22T13:03:18.035Z,19.27
2023-02-22T13:05:51.582Z,19.26
2023-02-22T13:08:40.032Z,19.02
2023-02-22T13:11:31.966Z,18.88
2023-02-22T13:14:28.912Z,18.90
2023-02-22T13:17:04.838Z,19.08
2023-02-22T13:19:50.775Z,19.07
2023-02-22T13:22:30.196Z,19.07
2023-02-22T13:25:16.712Z,19.13
2023-02-22T13:27:50.586Z,18.97
2023-02-22T13:30:30.025Z,19.05
2023-02-22T13:33:24.649Z,19.12
2023-02-22T13:36:10.441Z,19.03
2023-02-22T13:39:13.244Z,18.92
2023-02-22T13:41:55.547Z,18.77
2023-02-22T13:44:42.484Z,18.84
2023-02-22T13:47:44.739Z,19.03
2023-02-22T13:50:51.824Z,18.95
2023-02-22T13:53:29.217Z,18.64
2023-02-22T13:56:00.845Z,18.65
2023-02-22T13:58:28.142Z,18.78
2023-02-22T14:00:57.765Z,18.71
2023-02-22T14:03:36.349Z,18.38
2023-02-22T14:06:08.731Z,18.10
2023-02-22T14:08:35.548Z,18.29
2023-02-22T14:11:14.808Z,18.36
2023-02-22T14:14:01.631Z,18.44
2023-02-22T14:16:30.484Z,18.42
2023-02-22T14:19:27.106Z,18.31
2023-02-22T14:22:02.696Z,18.06
2023-02-22T14:24:51.736Z,17.84
2023-02-22T14:27:20.117Z,18.04
2023-02-22T14:30:01.273Z,18.11
2023-02-22T14:32:34.246Z,18.19
2023-02-22T14:35:14.298Z,18.04
2023-02-22T14:37:55.052Z,18.10
2023-02-22T14:40:26.328Z,17.91
2023-02-22T14:43:08.118Z,17.86
2023-02-22T14:45:43.624Z,17.75
2023-02-22T14:48:20.644Z,17.90
2023-02-22T14:51:05.859Z,17.68
2023-02-22T14:53:54.756Z,17.71
2023-02-22T14:56:30.363Z,17.78
2023-02-22T14:59:27.307Z,17.64
2023-02-22T15:02:18.341Z,17.28
2023-02-22T15:04:57.235Z,17.39
2023-02-22T15:07:30.410Z,17.37
2023-02-22T15:10:31.305Z,17.28
2023-02-22T15:13:12.190Z,17.22
2023-02-22T15:15:49.090Z,16.94
2023-02-22T15:18:33.642Z,16.99
2023-02-22T15:21:16.578Z,16.97
2023-02-22T15:23:47.321Z,16.84
2023-02-22T15:27:00.174Z,16.67
2023-02-22T15:29:39.192Z,16.66
2023-02-22T15:32:53.330Z,16.62
2023-02-22T15:35:24.236Z,16.67
2023-02-22T15:38:06.508Z,16.57
2023-02-22T15:40:35.084Z,16.55
2023-02-22T15:43:09.242Z,16.44
2023-02-22T15:45:43.185Z,16.29
2023-02-22T15:48:16.123Z,16.17
2023-02-22T15:51:06.921Z,16.11
2023-02-22T15:53:46.131Z,16.01
2023-02-22T15:56:17.492Z,15.96
2023-02-22T15:58:51.863Z,15.76
2023-02-22T16:01:21.597Z,15.70
2023-02-22T16:03:56.946Z,15.65
2023-02-22T16:06:37.539Z,15.55
2023-02-22T16:09:13.873Z,15.51
2023-02-22T16:11:44.371Z,15.38
2023-02-22T16:14:25.581Z,15.33
2023-02-22T16:17:33.766Z,15.25
2023-02-22T16:20:02.072Z,15.16
2023-02-22T16:22:38.646Z,15.14
2023-02-22T16:25:22.884Z,14.91
2023-02-22T16:27:58.423Z,14.80
2023-02-22T16:30:27.595Z,14.71
2023-02-22T16:32:57.112Z,14.64
2023-02-22T16:35:29.462Z,14.44
2023-02-22T16:38:08.509Z,14.48
2023-02-22T16:40:41.380Z,14.31
2023-02-22T16:43:17.488Z,14.28
2023-02-22T16:45:44.609Z,14.29
2023-02-22T16:48:17.767Z,14.23
2023-02-22T16:50:44.933Z,14.25
2023-02-22T16:53:12.312Z,14.12
2023-02-22T16:55:46.643Z,14.12
2023-02-22T16:58:14.929Z,14.01
2023-02-22T17:00:42.450Z,14.02
2023-02-22T17:03:16.341Z,13.93
2023-02-22T17:05:44.353Z,13.92
2023-02-22T17:08:11.500Z,13.89
2023-02-22T17:10:40.628Z,13.86
2023-02-22T17:13:21.797Z,13.75
2023-02-22T17:15:50.049Z,13.60
2023-02-22T17:18:23.148Z,13.57
2023-02-22T17:20:54.615Z,13.58
2023-02-22T17:23:23.313Z,13.53
2023-02-22T17:25:54.050Z,13.42
2023-02-22T17:28:22.053Z,13.48
2023-02-22T17:30:49.229Z,13.50
2023-02-22T17:33:19.891Z,13.47
2023-02-22T17:35:47.236Z,13.43
2023-02-22T17:38:18.614Z,13.38
2023-02-22T17:40:52.193Z,13.31
2023-02-22T17:43:23.078Z,13.28
2023-02-22T17:45:50.159Z,13.23
2023-02-22T17:48:22.905Z,13.17
2023-02-22T17:50:50.969Z,13.14
2023-02-22T17:53:21.874Z,13.06
2023-02-22T17:55:49.781Z,12.92
2023-02-22T17:58:17.681Z,12.84
2023-02-22T18:00:50.804Z,12.73
2023-02-22T18:03:26.029Z,12.64
2023-02-22T18:05:58.627Z,12.57
2023-02-22T18:08:31.079Z,12.53
2023-02-22T18:10:58.221Z,12.46
2023-02-22T18:13:27.886Z,12.34
2023-02-22T18:16:00.401Z,12.26
2023-02-22T18:18:27.941Z,12.13
2023-02-22T18:20:59.723Z,12.02
2023-02-22T18:23:47.574Z,11.93
2023-02-22T18:26:16.872Z,11.86
2023-02-22T18:28:44.110Z,11.75
2023-02-22T18:31:17.327Z,11.70
2023-02-22T18:33:47.542Z,11.62
2023-02-22T18:36:16.698Z,11.46
2023-02-22T18:38:45.010Z,11.33
2023-02-22T18:41:17.492Z,11.15
2023-02-22T18:43:46.559Z,11.13
2023-02-22T18:46:16.651Z,11.07
2023-02-22T18:48:44.390Z,11.08
2023-02-22T18:51:13.651Z,10.95
2023-02-22T18:53:46.951Z,10.94
2023-02-22T18:56:34.321Z,11.01
2023-02-22T18:59:03.777Z,11.04
2023-02-22T19:01:38.842Z,10.94
2023-02-22T19:04:12.839Z,10.93
2023-02-22T19:06:40.115Z,10.77
2023-02-22T19:09:09.854Z,10.70
2023-02-22T19:11:37.420Z,10.71
2023-02-22T19:14:06.114Z,10.80
2023-02-22T19:16:33.425Z,10.55
2023-02-22T19:19:00.490Z,10.63
2023-02-22T19:21:29.202Z,10.51
2023-02-22T19:23:56.634Z,10.50
2023-02-22T19:26:25.802Z,10.42
2023-02-22T19:28:54.828Z,10.51
2023-02-22T19:31:28.466Z,10.41
2023-02-22T19:34:00.767Z,10.33
2023-02-22T19:36:28.050Z,10.25
2023-02-22T19:38:54.995Z,10.18
2023-02-22T19:41:23.178Z,10.08
2023-02-22T19:43:52.682Z,10.13
2023-02-22T19:46:21.559Z,10.16
2023-02-22T19:48:49.534Z,10.03
2023-02-22T19:51:17.852Z,9.99
2023-02-22T19:53:46.064Z,9.93
2023-02-22T19:56:16.316Z,10.02
2023-02-22T19:58:45.040Z,9.89
2023-02-22T20:01:33.448Z,9.75
2023-02-22T20:04:06.219Z,9.83
2023-02-22T20:06:37.521Z,9.89
2023-02-22T20:09:04.710Z,9.90
2023-02-22T20:11:33.990Z,9.87
2023-02-22T20:14:01.273Z,9.84
2023-02-22T20:16:29.173Z,9.62
2023-02-22T20:18:56.243Z,9.65
2023-02-22T20:21:43.860Z,9.65
2023-02-22T20:24:20.747Z,9.47
2023-02-22T20:26:48.644Z,9.48
2023-02-22T20:29:16.292Z,9.42
2023-02-22T20:31:44.341Z,9.43
2023-02-22T20:34:12.042Z,9.42
2023-02-22T20:36:40.724Z,9.40
2023-02-22T20:39:13.607Z,9.30
2023-02-22T20:41:42.786Z,9.37
2023-02-22T20:44:13.667Z,9.32
2023-02-22T20:46:41.221Z,9.30
2023-02-22T20:49:11.398Z,9.30
2023-02-22T20:51:42.065Z,9.20
2023-02-22T20:54:12.440Z,9.18
2023-02-22T20:56:44.366Z,9.15
2023-02-22T20:59:14.595Z,9.01
2023-02-22T21:01:43.218Z,9.08
2023-02-22T21:04:11.258Z,9.21
2023-02-22T21:06:39.096Z,9.23
2023-02-22T21:09:08.886Z,9.09
2023-02-22T21:11:36.299Z,9.05
2023-02-22T21:14:03.651Z,9.04
2023-02-22T21:16:34.148Z,9.09
2023-02-22T21:19:03.421Z,9.03
2023-02-22T21:21:31.938Z,8.98
2023-02-22T21:24:03.128Z,8.92
2023-02-22T21:26:32.194Z,8.81
2023-02-22T21:29:01.728Z,8.82
2023-02-22T21:31:28.722Z,8.82
2023-02-22T21:33:57.825Z,8.91
2023-02-22T21:36:25.791Z,8.69
2023-02-22T21:38:55.953Z,8.68
2023-02-22T21:41:27.923Z,8.49
2023-02-22T21:43:57.304Z,8.40
2023-02-22T21:46:25.764Z,8.39
2023-02-22T21:48:52.808Z,8.43
2023-02-22T21:51:23.464Z,8.51
2023-02-22T21:53:52.682Z,8.41
2023-02-22T21:56:30.053Z,8.59
2023-02-22T21:59:05.074Z,8.37
2023-02-22T22:01:38.603Z,7.99
2023-02-22T22:04:05.556Z,8.20
2023-02-22T22:06:34.805Z,8.08
2023-02-22T22:09:04.844Z,8.16
2023-02-22T22:11:31.771Z,8.19
2023-02-22T22:14:00.026Z,8.07
2023-02-22T22:16:30.234Z,7.99
2023-02-22T22:18:57.925Z,8.05
2023-02-22T22:21:25.380Z,7.89
2023-02-22T22:23:57.512Z,8.00
2023-02-22T22:26:25.965Z,8.00
2023-02-22T22:28:56.060Z,8.06
2023-02-22T22:31:24.961Z,7.95
2023-02-22T22:33:52.430Z,7.93
2023-02-22T22:36:21.658Z,7.91
2023-02-22T22:38:49.584Z,7.81
2023-02-22T22:41:19.568Z,7.89
2023-02-22T22:43:47.197Z,7.96
2023-02-22T22:46:17.493Z,8.03
2023-02-22T22:48:47.396Z,8.12
2023-02-22T22:51:18.679Z,8.17
2023-02-22T22:53:47.988Z,7.92
2023-02-22T22:56:26.478Z,8.02
2023-02-22T22:58:59.057Z,7.97
2023-02-22T23:01:33.153Z,7.93
2023-02-22T23:04:03.275Z,7.83
2023-02-22T23:06:50.739Z,7.69
2023-02-22T23:09:21.997Z,7.77
2023-02-22T23:11:53.612Z,7.66
2023-02-22T23:14:26.541Z,7.60
2023-02-22T23:17:03.444Z,7.60
2023-02-22T23:19:31.416Z,7.45
2023-02-22T23:21:59.297Z,7.33
2023-02-22T23:24:29.302Z,7.33
2023-02-22T23:27:00.305Z,7.34
2023-02-22T23:29:29.990Z,7.14
2023-02-22T23:31:58.827Z,7.22
2023-02-22T23:34:26.476Z,7.19
2023-02-22T23:36:54.407Z,7.24
2023-02-22T23:39:22.683Z,7.35
2023-02-22T23:41:54.263Z,7.14
2023-02-22T23:44:22.136Z,7.17
2023-02-22T23:47:09.791Z,7.11
2023-02-22T23:49:38.470Z,7.23
2023-02-22T23:52:06.736Z,7.18
2023-02-22T23:54:36.737Z,7.16
2023-02-22T23:57:04.988Z,7.30
2023-02-22T23:59:33.691Z,7.22
